sensor_id;sensor_type;location;lat;lon;timestamp;pressure;altitude;pressure_sealevel;temperature;humidity
15405;BME280;7801;48.124;11.590;2023-09-08T00:02:04;95730.81;;;19.14;82.54
15405;BME280;7801;48.124;11.590;2023-09-08T00:04:29;95727.00;;;19.15;82.62
15405;BME280;7801;48.124;11.590;2023-09-08T00:06:55;95730.13;;;19.17;83.18
15405;BME280;7801;48.124;11.590;2023-09-08T00:09:20;95734.16;;;18.99;82.58
15405;BME280;7801;48.124;11.590;2023-09-08T00:11:45;95729.47;;;19.08;83.53
15405;BME280;7801;48.124;11.590;2023-09-08T00:14:11;95732.84;;;19.05;83.42
15405;BME280;7801;48.124;11.590;2023-09-08T00:16:36;95737.09;;;19.06;83.62
15405;BME280;7801;48.124;11.590;2023-09-08T00:19:04;95738.19;;;18.93;83.84
15405;BME280;7801;48.124;11.590;2023-09-08T00:21:29;95726.44;;;18.98;83.96
15405;BME280;7801;48.124;11.590;2023-09-08T00:23:54;95730.34;;;18.64;83.93
15405;BME280;7801;48.124;11.590;2023-09-08T00:26:20;95726.31;;;18.94;84.40
15405;BME280;7801;48.124;11.590;2023-09-08T00:28:47;95732.59;;;18.74;84.85
15405;BME280;7801;48.124;11.590;2023-09-08T00:31:12;95726.31;;;18.94;84.41
15405;BME280;7801;48.124;11.590;2023-09-08T00:33:37;95733.72;;;18.97;83.80
15405;BME280;7801;48.124;11.590;2023-09-08T00:36:03;95724.44;;;19.07;83.94
15405;BME280;7801;48.124;11.590;2023-09-08T00:38:28;95712.44;;;19.04;83.48
15405;BME280;7801;48.124;11.590;2023-09-08T00:40:54;95711.75;;;18.95;84.51
15405;BME280;7801;48.124;11.590;2023-09-08T00:43:19;95715.53;;;18.58;85.03
15405;BME280;7801;48.124;11.590;2023-09-08T00:45:45;95718.37;;;18.61;84.98
15405;BME280;7801;48.124;11.590;2023-09-08T00:48:11;95718.53;;;18.56;86.71
15405;BME280;7801;48.124;11.590;2023-09-08T00:50:37;95717.25;;;18.62;86.22
15405;BME280;7801;48.124;11.590;2023-09-08T00:53:05;95712.00;;;18.78;85.31
15405;BME280;7801;48.124;11.590;2023-09-08T00:55:32;95720.72;;;18.75;84.87
15405;BME280;7801;48.124;11.590;2023-09-08T00:58:00;95722.47;;;18.46;85.42
15405;BME280;7801;48.124;11.590;2023-09-08T01:00:27;95721.50;;;18.63;85.48
15405;BME280;7801;48.124;11.590;2023-09-08T01:02:52;95716.47;;;18.74;85.01
15405;BME280;7801;48.124;11.590;2023-09-08T01:05:17;95712.22;;;18.85;84.58
15405;BME280;7801;48.124;11.590;2023-09-08T01:07:44;95726.03;;;18.50;85.18
15405;BME280;7801;48.124;11.590;2023-09-08T01:10:10;95718.37;;;18.61;85.62
15405;BME280;7801;48.124;11.590;2023-09-08T01:12:35;95723.53;;;18.33;84.25
15405;BME280;7801;48.124;11.590;2023-09-08T01:15:04;95724.38;;;18.46;86.36
15405;BME280;7801;48.124;11.590;2023-09-08T01:17:30;95719.41;;;18.36;84.86
15405;BME280;7801;48.124;11.590;2023-09-08T01:19:56;95717.25;;;18.29;85.36
15405;BME280;7801;48.124;11.590;2023-09-08T01:22:44;95725.03;;;18.10;86.06
15405;BME280;7801;48.124;11.590;2023-09-08T01:25:26;95726.16;;;18.09;85.55
15405;BME280;7801;48.124;11.590;2023-09-08T01:27:54;95719.53;;;18.39;86.42
15405;BME280;7801;48.124;11.590;2023-09-08T01:30:21;95716.16;;;17.97;86.19
15405;BME280;7801;48.124;11.590;2023-09-08T01:32:49;95722.59;;;18.05;87.02
15405;BME280;7801;48.124;11.590;2023-09-08T01:35:15;95722.03;;;18.11;86.51
15405;BME280;7801;48.124;11.590;2023-09-08T01:37:48;95709.50;;;18.15;85.53
15405;BME280;7801;48.124;11.590;2023-09-08T01:40:14;95718.72;;;17.94;86.40
15405;BME280;7801;48.124;11.590;2023-09-08T01:42:40;95719.56;;;18.06;86.72
15405;BME280;7801;48.124;11.590;2023-09-08T01:45:06;95713.19;;;17.78;86.33
15405;BME280;7801;48.124;11.590;2023-09-08T01:47:33;95719.00;;;18.13;87.10
15405;BME280;7801;48.124;11.590;2023-09-08T01:49:59;95723.47;;;18.09;86.26
15405;BME280;7801;48.124;11.590;2023-09-08T01:52:25;95719.25;;;18.08;87.03
15405;BME280;7801;48.124;11.590;2023-09-08T01:54:50;95712.63;;;18.05;87.19
15405;BME280;7801;48.124;11.590;2023-09-08T01:57:17;95707.59;;;18.16;85.37
15405;BME280;7801;48.124;11.590;2023-09-08T01:59:42;95710.78;;;17.97;84.48
15405;BME280;7801;48.124;11.590;2023-09-08T02:02:08;95706.66;;;18.00;84.63
15405;BME280;7801;48.124;11.590;2023-09-08T02:04:33;95703.88;;;17.75;86.86
15405;BME280;7801;48.124;11.590;2023-09-08T02:06:58;95700.66;;;18.03;87.04
15405;BME280;7801;48.124;11.590;2023-09-08T02:09:35;95701.00;;;17.80;86.88
15405;BME280;7801;48.124;11.590;2023-09-08T02:12:01;95695.88;;;17.87;87.31
15405;BME280;7801;48.124;11.590;2023-09-08T02:14:27;95704.94;;;17.83;86.43
15405;BME280;7801;48.124;11.590;2023-09-08T02:16:53;95699.00;;;17.90;86.72
15405;BME280;7801;48.124;11.590;2023-09-08T02:19:18;95702.25;;;17.83;86.20
15405;BME280;7801;48.124;11.590;2023-09-08T02:21:44;95703.19;;;17.66;87.49
15405;BME280;7801;48.124;11.590;2023-09-08T02:24:09;95701.25;;;17.87;87.27
15405;BME280;7801;48.124;11.590;2023-09-08T02:26:36;95709.97;;;17.84;87.48
15405;BME280;7801;48.124;11.590;2023-09-08T02:29:02;95702.25;;;17.62;86.65
15405;BME280;7801;48.124;11.590;2023-09-08T02:31:28;95704.38;;;17.90;86.31
15405;BME280;7801;48.124;11.590;2023-09-08T02:33:53;95708.97;;;17.89;86.60
15405;BME280;7801;48.124;11.590;2023-09-08T02:36:18;95703.09;;;17.75;85.34
15405;BME280;7801;48.124;11.590;2023-09-08T02:38:55;95701.66;;;17.57;87.31
15405;BME280;7801;48.124;11.590;2023-09-08T02:41:22;95712.00;;;17.67;87.05
15405;BME280;7801;48.124;11.590;2023-09-08T02:43:49;95706.56;;;17.75;86.76
15405;BME280;7801;48.124;11.590;2023-09-08T02:46:15;95705.41;;;17.64;87.12
15405;BME280;7801;48.124;11.590;2023-09-08T02:48:41;95695.22;;;17.49;87.23
15405;BME280;7801;48.124;11.590;2023-09-08T02:51:07;95700.63;;;17.70;86.53
15405;BME280;7801;48.124;11.590;2023-09-08T02:53:32;95698.00;;;17.61;86.41
15405;BME280;7801;48.124;11.590;2023-09-08T02:55:58;95698.84;;;17.74;87.29
15405;BME280;7801;48.124;11.590;2023-09-08T02:58:24;95699.81;;;17.69;86.56
15405;BME280;7801;48.124;11.590;2023-09-08T03:00:49;95703.88;;;17.75;87.63
15405;BME280;7801;48.124;11.590;2023-09-08T03:03:16;95704.00;;;17.58;87.46
15405;BME280;7801;48.124;11.590;2023-09-08T03:05:41;95701.13;;;17.42;87.15
15405;BME280;7801;48.124;11.590;2023-09-08T03:08:07;95706.50;;;17.63;86.57
15405;BME280;7801;48.124;11.590;2023-09-08T03:10:33;95708.44;;;17.33;87.54
15405;BME280;7801;48.124;11.590;2023-09-08T03:13:02;95702.59;;;17.10;88.27
15405;BME280;7801;48.124;11.590;2023-09-08T03:15:27;95700.88;;;17.35;87.98
15405;BME280;7801;48.124;11.590;2023-09-08T03:17:57;95703.16;;;17.45;87.63
15405;BME280;7801;48.124;11.590;2023-09-08T03:20:26;95701.50;;;17.53;88.06
15405;BME280;7801;48.124;11.590;2023-09-08T03:22:52;95693.56;;;17.44;87.90
15405;BME280;7801;48.124;11.590;2023-09-08T03:25:19;95699.56;;;17.41;85.96
15405;BME280;7801;48.124;11.590;2023-09-08T03:27:44;95700.34;;;17.42;87.72
15405;BME280;7801;48.124;11.590;2023-09-08T03:30:10;95696.47;;;17.51;86.88
15405;BME280;7801;48.124;11.590;2023-09-08T03:32:36;95697.66;;;17.63;86.66
15405;BME280;7801;48.124;11.590;2023-09-08T03:35:01;95699.00;;;17.27;86.57
15405;BME280;7801;48.124;11.590;2023-09-08T03:37:29;95704.53;;;17.51;87.37
15405;BME280;7801;48.124;11.590;2023-09-08T03:39:54;95696.81;;;17.50;86.85
15405;BME280;7801;48.124;11.590;2023-09-08T03:42:19;95705.84;;;17.45;86.74
15405;BME280;7801;48.124;11.590;2023-09-08T03:44:44;95699.56;;;17.41;85.71
15405;BME280;7801;48.124;11.590;2023-09-08T03:47:10;95699.44;;;17.38;86.82
15405;BME280;7801;48.124;11.590;2023-09-08T03:49:35;95699.47;;;17.29;86.09
15405;BME280;7801;48.124;11.590;2023-09-08T03:52:02;95701.84;;;17.31;85.89
15405;BME280;7801;48.124;11.590;2023-09-08T03:54:27;95698.12;;;17.44;87.51
15405;BME280;7801;48.124;11.590;2023-09-08T03:56:52;95701.44;;;17.20;88.31
15405;BME280;7801;48.124;11.590;2023-09-08T03:59:18;95704.94;;;16.91;88.15
15405;BME280;7801;48.124;11.590;2023-09-08T04:01:43;95700.09;;;17.05;88.77
15405;BME280;7801;48.124;11.590;2023-09-08T04:04:08;95701.97;;;17.13;87.70
15405;BME280;7801;48.124;11.590;2023-09-08T04:06:34;95706.56;;;17.34;89.00
15405;BME280;7801;48.124;11.590;2023-09-08T04:08:59;95701.97;;;17.13;88.51
15405;BME280;7801;48.124;11.590;2023-09-08T04:11:25;95706.69;;;17.16;89.39
15405;BME280;7801;48.124;11.590;2023-09-08T04:13:51;95701.13;;;17.22;88.33
15405;BME280;7801;48.124;11.590;2023-09-08T04:16:18;95705.25;;;17.40;87.75
15405;BME280;7801;48.124;11.590;2023-09-08T04:18:43;95707.38;;;17.26;88.26
15405;BME280;7801;48.124;11.590;2023-09-08T04:21:10;95709.97;;;17.43;87.82
15405;BME280;7801;48.124;11.590;2023-09-08T04:23:35;95707.41;;;17.46;87.76
15405;BME280;7801;48.124;11.590;2023-09-08T04:26:00;95705.31;;;17.52;87.68
15405;BME280;7801;48.124;11.590;2023-09-08T04:28:26;95698.78;;;17.41;87.37
15405;BME280;7801;48.124;11.590;2023-09-08T04:30:51;95701.25;;;17.46;87.84
15405;BME280;7801;48.124;11.590;2023-09-08T04:33:16;95707.91;;;17.19;87.91
15405;BME280;7801;48.124;11.590;2023-09-08T04:35:41;95696.59;;;17.34;87.71
15405;BME280;7801;48.124;11.590;2023-09-08T04:38:08;95700.81;;;17.23;88.06
15405;BME280;7801;48.124;11.590;2023-09-08T04:40:33;95701.94;;;17.43;87.38
15405;BME280;7801;48.124;11.590;2023-09-08T04:42:59;95702.16;;;17.50;87.20
15405;BME280;7801;48.124;11.590;2023-09-08T04:45:24;95706.81;;;17.41;87.25
15405;BME280;7801;48.124;11.590;2023-09-08T04:47:50;95706.41;;;17.51;87.07
15405;BME280;7801;48.124;11.590;2023-09-08T04:50:15;95711.53;;;17.44;87.68
15405;BME280;7801;48.124;11.590;2023-09-08T04:52:41;95710.84;;;17.26;86.50
15405;BME280;7801;48.124;11.590;2023-09-08T04:55:06;95711.44;;;17.32;87.50
15405;BME280;7801;48.124;11.590;2023-09-08T04:57:32;95717.22;;;17.22;87.59
15405;BME280;7801;48.124;11.590;2023-09-08T04:59:57;95717.59;;;17.11;89.01
15405;BME280;7801;48.124;11.590;2023-09-08T05:02:22;95713.09;;;17.24;87.43
15405;BME280;7801;48.124;11.590;2023-09-08T05:04:49;95716.34;;;17.30;87.49
15405;BME280;7801;48.124;11.590;2023-09-08T05:07:14;95711.28;;;17.37;87.68
15405;BME280;7801;48.124;11.590;2023-09-08T05:09:39;95711.53;;;17.44;87.62
15405;BME280;7801;48.124;11.590;2023-09-08T05:12:05;95717.09;;;17.39;87.67
15405;BME280;7801;48.124;11.590;2023-09-08T05:14:31;95715.78;;;17.24;87.90
15405;BME280;7801;48.124;11.590;2023-09-08T05:16:56;95720.47;;;17.27;88.64
15405;BME280;7801;48.124;11.590;2023-09-08T05:19:22;95721.59;;;17.47;87.88
15405;BME280;7801;48.124;11.590;2023-09-08T05:21:50;95725.31;;;17.34;88.00
15405;BME280;7801;48.124;11.590;2023-09-08T05:24:16;95723.50;;;17.46;88.75
15405;BME280;7801;48.124;11.590;2023-09-08T05:26:41;95718.34;;;17.41;88.58
15405;BME280;7801;48.124;11.590;2023-09-08T05:29:06;95727.22;;;17.54;88.79
15405;BME280;7801;48.124;11.590;2023-09-08T05:31:33;95725.66;;;17.53;88.67
15405;BME280;7801;48.124;11.590;2023-09-08T05:34:00;95728.53;;;17.48;88.91
15405;BME280;7801;48.124;11.590;2023-09-08T05:36:25;95729.00;;;17.50;89.15
15405;BME280;7801;48.124;11.590;2023-09-08T05:38:50;95737.38;;;17.48;88.68
15405;BME280;7801;48.124;11.590;2023-09-08T05:41:16;95735.41;;;17.58;88.65
15405;BME280;7801;48.124;11.590;2023-09-08T05:43:42;95732.28;;;17.56;88.74
15405;BME280;7801;48.124;11.590;2023-09-08T05:46:08;95733.66;;;17.62;88.53
15405;BME280;7801;48.124;11.590;2023-09-08T05:48:33;95735.22;;;17.63;87.79
15405;BME280;7801;48.124;11.590;2023-09-08T05:50:58;95733.81;;;17.65;88.22
15405;BME280;7801;48.124;11.590;2023-09-08T05:53:24;95736.66;;;17.60;89.13
15405;BME280;7801;48.124;11.590;2023-09-08T05:55:50;95737.41;;;17.69;87.88
15405;BME280;7801;48.124;11.590;2023-09-08T05:58:17;95741.97;;;17.69;87.66
15405;BME280;7801;48.124;11.590;2023-09-08T06:00:43;95734.25;;;17.67;87.63
15405;BME280;7801;48.124;11.590;2023-09-08T06:03:09;95742.13;;;17.72;88.50
15405;BME280;7801;48.124;11.590;2023-09-08T06:05:34;95747.47;;;17.72;88.31
15405;BME280;7801;48.124;11.590;2023-09-08T06:07:59;95750.63;;;17.74;89.06
15405;BME280;7801;48.124;11.590;2023-09-08T06:10:25;95751.53;;;17.78;88.57
15405;BME280;7801;48.124;11.590;2023-09-08T06:12:50;95750.69;;;17.87;88.29
15405;BME280;7801;48.124;11.590;2023-09-08T06:15:16;95752.50;;;17.95;88.26
15405;BME280;7801;48.124;11.590;2023-09-08T06:17:42;95753.28;;;17.95;88.38
15405;BME280;7801;48.124;11.590;2023-09-08T06:20:07;95747.94;;;17.95;88.39
15405;BME280;7801;48.124;11.590;2023-09-08T06:22:33;95755.37;;;17.90;88.02
15405;BME280;7801;48.124;11.590;2023-09-08T06:24:59;95751.12;;;17.89;88.43
15405;BME280;7801;48.124;11.590;2023-09-08T06:27:24;95757.56;;;17.96;88.94
15405;BME280;7801;48.124;11.590;2023-09-08T06:29:50;95739.87;;;17.95;89.01
15405;BME280;7801;48.124;11.590;2023-09-08T06:32:16;95748.13;;;17.90;87.84
15405;BME280;7801;48.124;11.590;2023-09-08T06:34:41;95747.41;;;18.02;88.54
15405;BME280;7801;48.124;11.590;2023-09-08T06:37:08;95745.41;;;18.11;89.12
15405;BME280;7801;48.124;11.590;2023-09-08T06:39:33;95747.22;;;18.07;88.61
15405;BME280;7801;48.124;11.590;2023-09-08T06:41:58;95752.34;;;18.12;87.80
15405;BME280;7801;48.124;11.590;2023-09-08T06:44:24;95760.22;;;18.17;88.53
15405;BME280;7801;48.124;11.590;2023-09-08T06:46:49;95758.19;;;18.14;87.19
15405;BME280;7801;48.124;11.590;2023-09-08T06:49:15;95757.00;;;18.24;88.28
15405;BME280;7801;48.124;11.590;2023-09-08T06:51:40;95767.09;;;18.27;88.20
15405;BME280;7801;48.124;11.590;2023-09-08T06:54:05;95762.59;;;18.31;88.28
15405;BME280;7801;48.124;11.590;2023-09-08T06:56:31;95760.88;;;18.47;87.84
15405;BME280;7801;48.124;11.590;2023-09-08T06:58:56;95766.44;;;18.42;88.21
15405;BME280;7801;48.124;11.590;2023-09-08T07:01:23;95765.00;;;18.44;87.78
15405;BME280;7801;48.124;11.590;2023-09-08T07:03:49;95764.66;;;18.46;87.73
15405;BME280;7801;48.124;11.590;2023-09-08T07:06:15;95764.09;;;18.52;87.66
15405;BME280;7801;48.124;11.590;2023-09-08T07:08:40;95758.06;;;18.55;87.63
15405;BME280;7801;48.124;11.590;2023-09-08T07:11:05;95763.72;;;18.63;87.85
15405;BME280;7801;48.124;11.590;2023-09-08T07:13:31;95762.41;;;18.69;87.16
15405;BME280;7801;48.124;11.590;2023-09-08T07:15:56;95760.50;;;18.69;87.66
15405;BME280;7801;48.124;11.590;2023-09-08T07:18:21;95766.00;;;18.85;87.09
15405;BME280;7801;48.124;11.590;2023-09-08T07:20:47;95767.12;;;18.84;86.73
15405;BME280;7801;48.124;11.590;2023-09-08T07:23:13;95764.66;;;18.91;86.61
15405;BME280;7801;48.124;11.590;2023-09-08T07:25:38;95752.44;;;18.94;86.52
15405;BME280;7801;48.124;11.590;2023-09-08T07:28:04;95763.63;;;18.96;86.47
15405;BME280;7801;48.124;11.590;2023-09-08T07:30:31;95760.41;;;19.02;85.91
15405;BME280;7801;48.124;11.590;2023-09-08T07:32:57;95761.97;;;19.03;86.06
15405;BME280;7801;48.124;11.590;2023-09-08T07:35:23;95762.63;;;19.00;86.01
15405;BME280;7801;48.124;11.590;2023-09-08T07:37:49;95758.81;;;19.01;85.24
15405;BME280;7801;48.124;11.590;2023-09-08T07:40:14;95754.22;;;19.14;85.87
15405;BME280;7801;48.124;11.590;2023-09-08T07:42:40;95754.78;;;19.19;85.40
15405;BME280;7801;48.124;11.590;2023-09-08T07:45:05;95752.31;;;19.27;85.05
15405;BME280;7801;48.124;11.590;2023-09-08T07:47:31;95752.78;;;19.29;85.08
15405;BME280;7801;48.124;11.590;2023-09-08T07:50:25;95759.38;;;19.31;84.85
15405;BME280;7801;48.124;11.590;2023-09-08T07:52:53;95762.63;;;19.37;85.48
15405;BME280;7801;48.124;11.590;2023-09-08T07:55:20;95761.72;;;19.45;84.13
15405;BME280;7801;48.124;11.590;2023-09-08T07:57:50;95764.22;;;19.50;84.24
15405;BME280;7801;48.124;11.590;2023-09-08T08:00:17;95770.47;;;19.54;84.06
15405;BME280;7801;48.124;11.590;2023-09-08T08:02:46;95767.09;;;19.57;84.02
15405;BME280;7801;48.124;11.590;2023-09-08T08:05:12;95770.34;;;19.63;84.36
15405;BME280;7801;48.124;11.590;2023-09-08T08:07:39;95771.81;;;19.60;84.31
15405;BME280;7801;48.124;11.590;2023-09-08T08:10:08;95770.34;;;19.63;84.11
15405;BME280;7801;48.124;11.590;2023-09-08T08:12:35;95770.00;;;19.64;84.23
15405;BME280;7801;48.124;11.590;2023-09-08T08:15:03;95763.28;;;19.70;84.17
15405;BME280;7801;48.124;11.590;2023-09-08T08:17:30;95763.72;;;19.72;84.57
15405;BME280;7801;48.124;11.590;2023-09-08T08:19:56;95760.31;;;19.75;84.27
15405;BME280;7801;48.124;11.590;2023-09-08T08:22:24;95769.28;;;19.79;83.98
15405;BME280;7801;48.124;11.590;2023-09-08T08:24:49;95766.13;;;19.89;83.42
15405;BME280;7801;48.124;11.590;2023-09-08T08:27:15;95761.88;;;19.88;83.30
15405;BME280;7801;48.124;11.590;2023-09-08T08:29:40;95761.81;;;20.01;82.86
15405;BME280;7801;48.124;11.590;2023-09-08T08:32:05;95761.88;;;20.16;81.78
15405;BME280;7801;48.124;11.590;2023-09-08T08:34:31;95757.53;;;20.12;81.99
15405;BME280;7801;48.124;11.590;2023-09-08T08:36:56;95759.72;;;20.22;82.30
15405;BME280;7801;48.124;11.590;2023-09-08T08:39:22;95763.87;;;20.19;82.43
15405;BME280;7801;48.124;11.590;2023-09-08T08:41:47;95764.41;;;20.25;81.65
15405;BME280;7801;48.124;11.590;2023-09-08T08:44:15;95758.78;;;20.30;81.40
15405;BME280;7801;48.124;11.590;2023-09-08T08:46:43;95763.50;;;20.33;81.28
15405;BME280;7801;48.124;11.590;2023-09-08T08:49:11;95757.19;;;20.41;81.25
15405;BME280;7801;48.124;11.590;2023-09-08T08:51:38;95759.09;;;20.41;81.02
15405;BME280;7801;48.124;11.590;2023-09-08T08:54:04;95755.16;;;20.38;81.33
15405;BME280;7801;48.124;11.590;2023-09-08T08:56:31;95752.91;;;20.40;82.28
15405;BME280;7801;48.124;11.590;2023-09-08T08:58:57;95754.81;;;20.40;82.29
15405;BME280;7801;48.124;11.590;2023-09-08T09:01:24;95753.00;;;20.44;81.86
15405;BME280;7801;48.124;11.590;2023-09-08T09:03:52;95753.66;;;20.53;81.61
15405;BME280;7801;48.124;11.590;2023-09-08T09:06:18;95751.06;;;20.56;81.80
15405;BME280;7801;48.124;11.590;2023-09-08T09:08:44;95747.72;;;20.63;80.91
15405;BME280;7801;48.124;11.590;2023-09-08T09:11:10;95747.91;;;20.70;80.38
15405;BME280;7801;48.124;11.590;2023-09-08T09:13:37;95751.41;;;20.71;80.34
15405;BME280;7801;48.124;11.590;2023-09-08T09:16:02;95738.34;;;20.73;80.49
15405;BME280;7801;48.124;11.590;2023-09-08T09:18:31;95748.25;;;20.84;80.23
15405;BME280;7801;48.124;11.590;2023-09-08T09:20:59;95742.06;;;21.15;78.64
15405;BME280;7801;48.124;11.590;2023-09-08T09:23:43;95745.56;;;21.32;78.34
15405;BME280;7801;48.124;11.590;2023-09-08T09:26:08;95742.44;;;21.30;78.45
15405;BME280;7801;48.124;11.590;2023-09-08T09:28:33;95743.38;;;21.21;78.61
15405;BME280;7801;48.124;11.590;2023-09-08T09:31:00;95744.09;;;21.18;78.71
15405;BME280;7801;48.124;11.590;2023-09-08T09:33:27;95739.22;;;21.24;78.69
15405;BME280;7801;48.124;11.590;2023-09-08T09:35:54;95735.19;;;21.34;78.75
15405;BME280;7801;48.124;11.590;2023-09-08T09:38:20;95736.12;;;21.41;78.37
15405;BME280;7801;48.124;11.590;2023-09-08T09:40:47;95736.84;;;21.38;79.01
15405;BME280;7801;48.124;11.590;2023-09-08T09:43:13;95740.97;;;21.51;78.42
15405;BME280;7801;48.124;11.590;2023-09-08T09:45:40;95734.97;;;21.58;78.00
15405;BME280;7801;48.124;11.590;2023-09-08T09:48:08;95732.81;;;21.67;77.98
15405;BME280;7801;48.124;11.590;2023-09-08T09:50:39;95731.50;;;21.77;77.45
15405;BME280;7801;48.124;11.590;2023-09-08T09:53:15;95729.59;;;21.97;76.49
15405;BME280;7801;48.124;11.590;2023-09-08T09:55:43;95726.53;;;21.98;76.58
15405;BME280;7801;48.124;11.590;2023-09-08T09:58:09;95725.19;;;22.08;75.76
15405;BME280;7801;48.124;11.590;2023-09-08T10:00:39;95722.97;;;22.13;75.88
15405;BME280;7801;48.124;11.590;2023-09-08T10:03:13;95723.16;;;22.24;75.70
15405;BME280;7801;48.124;11.590;2023-09-08T10:05:38;95725.84;;;22.20;75.82
15405;BME280;7801;48.124;11.590;2023-09-08T10:08:04;95715.22;;;22.12;76.12
15405;BME280;7801;48.124;11.590;2023-09-08T10:10:32;95709.28;;;22.03;75.51
15405;BME280;7801;48.124;11.590;2023-09-08T10:13:03;95716.66;;;22.06;75.97
15405;BME280;7801;48.124;11.590;2023-09-08T10:15:31;95711.66;;;22.08;75.84
15405;BME280;7801;48.124;11.590;2023-09-08T10:17:56;95711.25;;;22.06;75.72
15405;BME280;7801;48.124;11.590;2023-09-08T10:20:26;95708.69;;;22.13;74.77
15405;BME280;7801;48.124;11.590;2023-09-08T10:22:54;95706.84;;;22.17;75.47
15405;BME280;7801;48.124;11.590;2023-09-08T10:25:24;95712.66;;;22.19;74.98
15405;BME280;7801;48.124;11.590;2023-09-08T10:27:50;95711.06;;;22.37;72.37
15405;BME280;7801;48.124;11.590;2023-09-08T10:30:15;95708.78;;;22.39;72.41
15405;BME280;7801;48.124;11.590;2023-09-08T10:32:43;95706.50;;;22.41;72.91
15405;BME280;7801;48.124;11.590;2023-09-08T10:35:09;95708.78;;;22.39;73.73
15405;BME280;7801;48.124;11.590;2023-09-08T10:37:35;95712.63;;;22.38;74.24
15405;BME280;7801;48.124;11.590;2023-09-08T10:40:23;95706.62;;;22.48;71.50
15405;BME280;7801;48.124;11.590;2023-09-08T10:42:49;95707.12;;;22.54;71.70
15405;BME280;7801;48.124;11.590;2023-09-08T10:45:16;95704.91;;;22.59;70.88
15405;BME280;7801;48.124;11.590;2023-09-08T10:50:17;95706.69;;;22.75;70.89
15405;BME280;7801;48.124;11.590;2023-09-08T10:52:43;95705.13;;;22.74;71.62
15405;BME280;7801;48.124;11.590;2023-09-08T10:55:11;95704.69;;;22.72;70.80
15405;BME280;7801;48.124;11.590;2023-09-08T10:57:36;95707.12;;;22.77;70.28
15405;BME280;7801;48.124;11.590;2023-09-08T11:00:03;95706.00;;;22.78;70.55
15405;BME280;7801;48.124;11.590;2023-09-08T11:02:40;95695.19;;;22.78;71.22
15405;BME280;7801;48.124;11.590;2023-09-08T11:05:12;95697.88;;;22.78;71.37
15405;BME280;7801;48.124;11.590;2023-09-08T11:07:39;95694.53;;;22.84;71.77
15405;BME280;7801;48.124;11.590;2023-09-08T11:10:06;95695.41;;;22.92;72.17
15405;BME280;7801;48.124;11.590;2023-09-08T11:12:32;95702.19;;;23.05;71.78
15405;BME280;7801;48.124;11.590;2023-09-08T11:14:58;95693.97;;;23.24;71.19
15405;BME280;7801;48.124;11.590;2023-09-08T11:17:30;95703.53;;;23.45;70.40
15405;BME280;7801;48.124;11.590;2023-09-08T11:19:56;95698.31;;;23.59;69.19
15405;BME280;7801;48.124;11.590;2023-09-08T11:22:23;95703.75;;;23.59;68.76
15405;BME280;7801;48.124;11.590;2023-09-08T11:24:58;95705.09;;;23.46;69.88
15405;BME280;7801;48.124;11.590;2023-09-08T11:27:23;95699.78;;;23.53;69.25
15405;BME280;7801;48.124;11.590;2023-09-08T11:29:50;95697.28;;;23.67;67.95
15405;BME280;7801;48.124;11.590;2023-09-08T11:32:16;95702.34;;;23.72;67.82
15405;BME280;7801;48.124;11.590;2023-09-08T11:34:41;95701.13;;;23.66;68.35
15405;BME280;7801;48.124;11.590;2023-09-08T11:37:15;95705.56;;;23.81;67.23
15405;BME280;7801;48.124;11.590;2023-09-08T11:39:43;95704.63;;;24.00;66.66
15405;BME280;7801;48.124;11.590;2023-09-08T11:42:11;95700.34;;;23.99;66.83
15405;BME280;7801;48.124;11.590;2023-09-08T11:44:37;95701.28;;;24.14;66.59
15405;BME280;7801;48.124;11.590;2023-09-08T11:47:06;95691.22;;;24.11;65.61
15405;BME280;7801;48.124;11.590;2023-09-08T11:49:36;95693.19;;;24.17;65.92
15405;BME280;7801;48.124;11.590;2023-09-08T11:52:02;95694.72;;;24.15;66.04
15405;BME280;7801;48.124;11.590;2023-09-08T11:54:29;95689.25;;;24.11;66.18
15405;BME280;7801;48.124;11.590;2023-09-08T11:57:01;95693.47;;;24.05;67.21
15405;BME280;7801;48.124;11.590;2023-09-08T11:59:30;95695.94;;;24.21;67.44
15405;BME280;7801;48.124;11.590;2023-09-08T12:01:56;95689.16;;;24.38;66.69
15405;BME280;7801;48.124;11.590;2023-09-08T12:04:22;95678.44;;;24.48;66.49
15405;BME280;7801;48.124;11.590;2023-09-08T12:06:48;95680.63;;;24.36;66.93
15405;BME280;7801;48.124;11.590;2023-09-08T12:09:15;95690.28;;;24.29;67.21
15405;BME280;7801;48.124;11.590;2023-09-08T12:11:41;95682.81;;;24.63;66.37
15405;BME280;7801;48.124;11.590;2023-09-08T12:14:11;95691.53;;;24.83;65.42
15405;BME280;7801;48.124;11.590;2023-09-08T12:16:36;95688.03;;;24.83;65.03
15405;BME280;7801;48.124;11.590;2023-09-08T12:19:03;95679.00;;;24.68;65.09
15405;BME280;7801;48.124;11.590;2023-09-08T12:21:28;95683.12;;;24.51;66.14
15405;BME280;7801;48.124;11.590;2023-09-08T12:23:54;95674.72;;;24.67;65.80
15405;BME280;7801;48.124;11.590;2023-09-08T12:26:20;95679.75;;;24.65;65.96
15405;BME280;7801;48.124;11.590;2023-09-08T12:28:46;95671.94;;;24.60;65.43
15405;BME280;7801;48.124;11.590;2023-09-08T12:31:16;95677.00;;;24.61;65.46
15405;BME280;7801;48.124;11.590;2023-09-08T12:33:43;95675.94;;;24.73;64.74
15405;BME280;7801;48.124;11.590;2023-09-08T12:36:18;95667.62;;;24.52;65.47
15405;BME280;7801;48.124;11.590;2023-09-08T12:38:51;95680.78;;;24.50;65.69
15405;BME280;7801;48.124;11.590;2023-09-08T12:41:17;95680.81;;;24.57;65.57
15405;BME280;7801;48.124;11.590;2023-09-08T12:43:42;95674.13;;;24.44;65.94
15405;BME280;7801;48.124;11.590;2023-09-08T12:46:08;95675.34;;;24.50;66.26
15405;BME280;7801;48.124;11.590;2023-09-08T12:48:33;95680.16;;;24.67;65.42
15405;BME280;7801;48.124;11.590;2023-09-08T12:50:59;95670.00;;;24.60;65.27
15405;BME280;7801;48.124;11.590;2023-09-08T12:53:24;95673.78;;;24.93;64.49
15405;BME280;7801;48.124;11.590;2023-09-08T12:55:50;95672.75;;;25.15;63.92
15405;BME280;7801;48.124;11.590;2023-09-08T12:58:16;95676.34;;;25.26;63.98
15405;BME280;7801;48.124;11.590;2023-09-08T13:00:45;95678.22;;;25.19;64.31